createdAt,value
2022-09-28T00:01:21.201Z,5.10
2022-09-28T00:03:50.949Z,5.17
2022-09-28T00:06:21.252Z,4.77
2022-09-28T00:08:50.262Z,4.73
2022-09-28T00:11:19.322Z,5.07
2022-09-28T00:13:51.769Z,5.40
2022-09-28T00:16:21.647Z,4.90
2022-09-28T00:18:51.414Z,5.17
2022-09-28T00:21:22.292Z,4.57
2022-09-28T00:24:14.362Z,4.77
2022-09-28T00:26:48.999Z,4.77
2022-09-28T00:29:30.130Z,4.50
2022-09-28T00:32:03.151Z,5.23
2022-09-28T00:34:36.105Z,4.40
2022-09-28T00:37:05.364Z,4.63
2022-09-28T00:39:32.770Z,4.57
2022-09-28T00:42:00.102Z,4.67
2022-09-28T00:44:27.249Z,5.10
2022-09-28T00:47:07.167Z,4.32
2022-09-28T00:49:45.765Z,4.60
2022-09-28T00:52:18.914Z,4.67
2022-09-28T00:54:48.615Z,4.63
2022-09-28T00:57:17.174Z,4.50
2022-09-28T00:59:44.779Z,5.10
2022-09-28T01:02:12.258Z,13.40
2022-09-28T01:04:39.467Z,4.87
2022-09-28T01:07:09.019Z,4.83
2022-09-28T01:09:40.756Z,4.90
2022-09-28T01:12:08.240Z,4.87
2022-09-28T01:14:35.561Z,4.37
2022-09-28T01:17:35.227Z,4.60
2022-09-28T01:20:05.938Z,4.23
2022-09-28T01:22:58.243Z,5.43
2022-09-28T01:25:40.212Z,4.28
2022-09-28T01:28:17.428Z,4.50
2022-09-28T01:30:55.829Z,4.83
2022-09-28T01:33:27.017Z,4.80
2022-09-28T01:36:01.688Z,10.73
2022-09-28T01:38:38.291Z,4.43
2022-09-28T01:41:06.900Z,6.87
2022-09-28T01:43:39.358Z,5.03
2022-09-28T01:46:23.963Z,5.00
2022-09-28T01:48:58.967Z,4.57
2022-09-28T01:51:38.011Z,5.07
2022-09-28T01:54:13.265Z,4.93
2022-09-28T01:56:51.006Z,4.87
2022-09-28T01:59:23.299Z,5.83
2022-09-28T02:02:04.720Z,5.07
2022-09-28T02:05:01.195Z,5.23
2022-09-28T02:07:57.485Z,4.83
2022-09-28T02:10:30.206Z,4.60
2022-09-28T02:13:12.395Z,4.57
2022-09-28T02:15:53.904Z,4.37
2022-09-28T02:18:21.212Z,4.50
2022-09-28T02:20:59.513Z,4.28
2022-09-28T02:23:29.302Z,4.35
2022-09-28T02:26:06.759Z,4.32
2022-09-28T02:28:34.014Z,4.37
2022-09-28T02:31:01.478Z,4.22
2022-09-28T02:33:37.141Z,3.83
2022-09-28T02:36:05.250Z,3.97
2022-09-28T02:38:32.871Z,4.00
2022-09-28T02:41:36.670Z,4.03
2022-09-28T02:44:12.533Z,3.90
2022-09-28T02:47:00.584Z,4.30
2022-09-28T02:49:52.927Z,4.05
2022-09-28T02:53:07.501Z,4.55
2022-09-28T02:55:43.133Z,3.72
2022-09-28T02:58:29.055Z,3.80
2022-09-28T03:01:29.569Z,4.18
2022-09-28T03:04:16.413Z,3.35
2022-09-28T03:06:53.793Z,3.70
2022-09-28T03:09:50.524Z,3.40
2022-09-28T03:12:20.341Z,3.60
2022-09-28T03:14:47.564Z,4.07
2022-09-28T03:17:14.714Z,3.90
2022-09-28T03:19:41.892Z,4.18
2022-09-28T03:22:09.055Z,3.90
2022-09-28T03:24:36.197Z,4.30
2022-09-28T03:27:03.312Z,3.42
2022-09-28T03:29:33.161Z,3.72
2022-09-28T03:32:00.465Z,3.78
2022-09-28T03:34:27.650Z,3.83
2022-09-28T03:36:54.808Z,3.65
2022-09-28T03:39:21.903Z,4.18
2022-09-28T03:41:49.008Z,3.80
2022-09-28T03:44:16.158Z,4.47
2022-09-28T03:46:43.337Z,3.80
2022-09-28T03:49:11.041Z,3.80
2022-09-28T03:51:38.163Z,3.78
2022-09-28T03:54:05.611Z,3.83
2022-09-28T03:56:33.161Z,3.70
2022-09-28T03:59:02.425Z,3.78
2022-09-28T04:01:29.617Z,3.55
2022-09-28T04:03:57.063Z,3.45
2022-09-28T04:06:24.906Z,3.47
2022-09-28T04:08:52.204Z,3.63
2022-09-28T04:11:19.534Z,3.40
2022-09-28T04:13:49.977Z,3.38
2022-09-28T04:16:18.040Z,3.22
2022-09-28T04:18:45.190Z,3.50
2022-09-28T04:21:14.186Z,3.50
2022-09-28T04:23:41.439Z,3.75
2022-09-28T04:26:16.758Z,3.78
2022-09-28T04:29:06.545Z,3.10
2022-09-28T04:31:44.638Z,3.33
2022-09-28T04:34:13.645Z,3.38
2022-09-28T04:36:41.499Z,3.35
2022-09-28T04:39:08.646Z,2.95
2022-09-28T04:41:36.066Z,2.72
2022-09-28T04:44:03.248Z,3.10
2022-09-28T04:46:30.349Z,3.08
2022-09-28T04:48:57.504Z,3.03
2022-09-28T04:51:24.926Z,3.50
2022-09-28T04:53:52.071Z,3.00
2022-09-28T04:56:19.861Z,2.70
2022-09-28T04:58:52.432Z,2.90
2022-09-28T05:01:23.750Z,2.78
2022-09-28T05:03:51.313Z,3.00
2022-09-28T05:06:18.436Z,2.90
2022-09-28T05:08:47.382Z,3.13
2022-09-28T05:11:14.963Z,2.70
2022-09-28T05:13:45.485Z,3.00
2022-09-28T05:16:15.963Z,3.13
2022-09-28T05:18:43.653Z,2.92
2022-09-28T05:21:13.120Z,2.90
2022-09-28T05:23:41.068Z,2.80
2022-09-28T05:26:08.279Z,2.70
2022-09-28T05:28:35.375Z,2.63
2022-09-28T05:31:05.016Z,2.67
2022-09-28T05:33:33.238Z,2.58
2022-09-28T05:36:01.503Z,2.60
2022-09-28T05:38:30.126Z,2.47
2022-09-28T05:40:57.516Z,2.30
2022-09-28T05:43:24.703Z,2.80
2022-09-28T05:45:55.650Z,2.17
2022-09-28T05:48:23.565Z,2.33
2022-09-28T05:50:52.569Z,2.50
2022-09-28T05:53:20.306Z,2.45
2022-09-28T05:55:47.921Z,2.10
2022-09-28T05:58:15.399Z,2.53
2022-09-28T06:00:44.320Z,2.30
2022-09-28T06:03:13.991Z,2.35
2022-09-28T06:05:41.782Z,2.10
2022-09-28T06:08:13.324Z,2.45
2022-09-28T06:10:41.117Z,2.20
2022-09-28T06:13:08.719Z,1.90
2022-09-28T06:15:36.612Z,2.05
2022-09-28T06:18:14.268Z,2.20
2022-09-28T06:20:41.946Z,1.80
2022-09-28T06:23:10.293Z,2.10
2022-09-28T06:25:37.772Z,1.92
2022-09-28T06:28:06.515Z,1.90
2022-09-28T06:30:36.400Z,1.92
2022-09-28T06:33:03.698Z,1.60
2022-09-28T06:35:32.380Z,1.90
2022-09-28T06:38:00.158Z,1.65
2022-09-28T06:40:27.961Z,1.70
2022-09-28T06:43:14.899Z,1.40
2022-09-28T06:45:43.674Z,1.80
2022-09-28T06:48:11.737Z,1.67
2022-09-28T06:50:41.052Z,1.65
2022-09-28T06:53:10.954Z,1.50
2022-09-28T06:55:42.828Z,1.77
2022-09-28T06:58:15.437Z,1.88
2022-09-28T07:00:43.135Z,1.65
2022-09-28T07:03:16.016Z,1.50
2022-09-28T07:05:51.444Z,1.30
2022-09-28T07:08:19.795Z,1.40
2022-09-28T07:10:49.227Z,1.60
2022-09-28T07:13:45.196Z,1.63
2022-09-28T07:16:04.697Z,1.50
2022-09-28T07:18:32.121Z,1.45
2022-09-28T07:20:59.959Z,1.80
2022-09-28T07:23:29.692Z,1.60
2022-09-28T07:25:58.374Z,1.73
2022-09-28T07:28:25.613Z,1.50
2022-09-28T07:30:52.937Z,1.40
2022-09-28T07:33:20.141Z,1.25
2022-09-28T07:35:52.491Z,1.42
2022-09-28T07:38:19.656Z,1.45
2022-09-28T07:41:05.555Z,1.42
2022-09-28T07:43:33.295Z,1.33
2022-09-28T07:46:00.595Z,1.50
2022-09-28T07:48:27.932Z,1.48
2022-09-28T07:50:57.375Z,1.52
2022-09-28T07:53:25.727Z,1.25
2022-09-28T07:56:10.138Z,1.27
2022-09-28T07:58:39.056Z,1.10
2022-09-28T08:01:09.175Z,1.17
2022-09-28T08:03:37.263Z,1.20
2022-09-28T08:06:07.346Z,1.30
2022-09-28T08:08:35.842Z,1.40
2022-09-28T08:11:06.021Z,1.50
2022-09-28T08:13:33.171Z,1.15
2022-09-28T08:16:04.514Z,1.42
2022-09-28T08:18:32.222Z,1.13
2022-09-28T08:21:17.848Z,1.17
2022-09-28T08:23:45.415Z,1.30
2022-09-28T08:26:15.525Z,1.30
2022-09-28T08:28:45.291Z,1.20
2022-09-28T08:31:12.558Z,1.40
2022-09-28T08:33:40.480Z,1.13
2022-09-28T08:36:07.732Z,1.40
2022-09-28T08:38:34.891Z,1.30
2022-09-28T08:41:05.205Z,1.30
2022-09-28T08:43:48.332Z,1.30
2022-09-28T08:46:22.672Z,1.10
2022-09-28T08:49:24.523Z,1.30
2022-09-28T08:52:04.057Z,1.35
2022-09-28T08:54:50.511Z,1.23
2022-09-28T08:57:23.617Z,1.17
2022-09-28T08:59:56.187Z,1.20
2022-09-28T09:02:34.168Z,1.30
2022-09-28T09:05:05.141Z,1.48
2022-09-28T09:08:00.758Z,1.08
2022-09-28T09:10:43.350Z,1.00
2022-09-28T09:13:32.061Z,1.17
2022-09-28T09:16:11.325Z,1.30
2022-09-28T09:19:13.484Z,1.08
2022-09-28T09:21:49.281Z,1.10
2022-09-28T09:24:27.468Z,1.10
2022-09-28T09:27:02.317Z,1.10
2022-09-28T09:29:38.138Z,1.00
2022-09-28T09:32:32.724Z,1.15
2022-09-28T09:35:31.471Z,0.90
2022-09-28T09:38:17.607Z,1.02
2022-09-28T09:41:36.170Z,1.38
2022-09-28T09:44:12.638Z,1.40
2022-09-28T09:47:08.224Z,1.13
2022-09-28T09:49:47.295Z,1.10
2022-09-28T09:55:02.641Z,1.13
2022-09-28T09:57:40.386Z,0.80
2022-09-28T10:00:15.664Z,0.95
2022-09-28T10:02:45.175Z,1.20
2022-09-28T10:05:12.324Z,1.08
2022-09-28T10:07:46.908Z,1.23
2022-09-28T10:10:35.037Z,1.00
2022-09-28T10:13:02.298Z,1.17
2022-09-28T10:15:32.118Z,1.30
2022-09-28T10:18:04.032Z,1.10
2022-09-28T10:20:37.174Z,1.30
2022-09-28T10:23:06.894Z,1.10
2022-09-28T10:25:38.115Z,1.13
2022-09-28T10:28:19.402Z,1.20
2022-09-28T10:30:46.784Z,1.10
2022-09-28T10:33:34.275Z,1.00
2022-09-28T10:36:04.849Z,1.02
2022-09-28T10:38:33.679Z,0.88
2022-09-28T10:41:11.721Z,0.90
2022-09-28T10:43:52.062Z,1.00
2022-09-28T10:46:23.709Z,1.13
2022-09-28T10:49:17.725Z,0.77
2022-09-28T10:51:47.396Z,1.00
2022-09-28T10:54:20.251Z,0.77
2022-09-28T10:56:49.258Z,1.08
2022-09-28T10:59:31.769Z,1.10
2022-09-28T11:02:12.815Z,0.77
2022-09-28T11:04:49.689Z,1.05
2022-09-28T11:07:24.944Z,1.00
2022-09-28T11:09:53.385Z,1.00
2022-09-28T11:12:26.635Z,0.65
2022-09-28T11:15:01.650Z,0.88
2022-09-28T11:17:39.157Z,0.80
2022-09-28T11:20:27.330Z,1.08
2022-09-28T11:22:59.395Z,1.02
2022-09-28T11:25:29.438Z,0.80
2022-09-28T11:27:59.868Z,1.00
2022-09-28T11:30:28.899Z,1.10
2022-09-28T11:33:11.962Z,0.82
2022-09-28T11:36:00.891Z,1.10
2022-09-28T11:39:08.660Z,1.02
2022-09-28T11:41:52.834Z,1.25
2022-09-28T11:44:35.081Z,1.13
2022-09-28T11:47:21.211Z,1.00
2022-09-28T11:49:57.657Z,1.20
2022-09-28T11:52:36.844Z,1.20
2022-09-28T11:55:19.840Z,1.27
2022-09-28T11:57:54.129Z,1.10
2022-09-28T12:00:24.972Z,1.00
2022-09-28T12:02:55.971Z,1.08
2022-09-28T12:05:25.391Z,1.00
2022-09-28T12:08:09.513Z,1.10
2022-09-28T12:10:45.539Z,1.20
2022-09-28T12:13:17.483Z,1.20
2022-09-28T12:16:23.308Z,1.40
2022-09-28T12:19:06.212Z,1.10
2022-09-28T12:21:44.914Z,1.42
2022-09-28T12:24:24.183Z,1.27
2022-09-28T12:27:24.031Z,1.20
2022-09-28T12:30:03.007Z,1.20
2022-09-28T12:32:51.301Z,1.27
2022-09-28T12:35:46.272Z,1.25
2022-09-28T12:38:27.001Z,1.20
2022-09-28T12:41:00.370Z,1.00
2022-09-28T12:44:04.000Z,1.20
2022-09-28T12:46:46.620Z,1.13
2022-09-28T12:52:32.546Z,1.23
2022-09-28T12:54:59.842Z,1.17
2022-09-28T12:58:00.188Z,1.40
2022-09-28T13:00:40.142Z,1.10
2022-09-28T13:03:19.208Z,1.27
2022-09-28T13:06:01.770Z,1.00
2022-09-28T13:08:56.806Z,1.42
2022-09-28T13:11:42.838Z,1.05
2022-09-28T13:14:10.062Z,1.00
2022-09-28T13:17:05.876Z,0.90
2022-09-28T13:19:48.948Z,1.25
2022-09-28T13:22:44.412Z,1.30
2022-09-28T13:25:18.084Z,0.80
2022-09-28T13:27:55.541Z,0.95
2022-09-28T13:30:23.081Z,1.05
2022-09-28T13:32:51.024Z,1.17
2022-09-28T13:35:21.713Z,1.15
2022-09-28T13:38:23.440Z,1.20
2022-09-28T13:41:06.169Z,0.98
2022-09-28T13:44:00.423Z,0.95
2022-09-28T13:46:34.497Z,1.00
2022-09-28T13:49:40.337Z,1.00
2022-09-28T13:52:20.975Z,0.95
2022-09-28T13:55:09.201Z,0.88
2022-09-28T13:57:56.050Z,0.80
2022-09-28T14:00:30.849Z,0.77
2022-09-28T14:03:25.593Z,0.80
2022-09-28T14:06:08.242Z,1.02
2022-09-28T14:08:44.781Z,1.00
2022-09-28T14:11:25.024Z,1.05
2022-09-28T14:14:06.344Z,1.20
2022-09-28T14:16:35.930Z,1.10
2022-09-28T14:19:23.675Z,1.08
2022-09-28T14:21:53.765Z,1.10
2022-09-28T14:24:58.872Z,1.40
2022-09-28T14:27:41.921Z,1.15
2022-09-28T14:30:12.096Z,1.50
2022-09-28T14:32:52.747Z,1.60
2022-09-28T14:35:39.351Z,1.42
2022-09-28T14:38:49.341Z,1.50
2022-09-28T14:41:17.825Z,1.63
2022-09-28T14:43:44.927Z,1.80
2022-09-28T14:46:12.428Z,1.50
2022-09-28T14:49:01.824Z,1.40
2022-09-28T14:51:30.296Z,1.70
2022-09-28T14:54:04.954Z,1.80
2022-09-28T14:56:39.220Z,1.65
2022-09-28T14:59:10.938Z,1.75
2022-09-28T15:01:39.056Z,1.63
2022-09-28T15:04:11.403Z,1.40
2022-09-28T15:06:49.662Z,1.67
2022-09-28T15:09:48.064Z,1.80
2022-09-28T15:12:18.440Z,1.70
2022-09-28T15:14:57.532Z,1.63
2022-09-28T15:17:28.805Z,1.63
2022-09-28T15:20:36.724Z,1.60
2022-09-28T15:23:04.468Z,1.67
2022-09-28T15:25:33.119Z,1.75
2022-09-28T15:28:13.672Z,1.73
2022-09-28T15:30:40.821Z,1.77
2022-09-28T15:33:47.784Z,1.60
2022-09-28T15:36:20.747Z,1.83
2022-09-28T15:39:01.517Z,1.67
2022-09-28T15:41:29.511Z,2.03
2022-09-28T15:44:29.889Z,1.90
2022-09-28T15:47:11.436Z,1.92
2022-09-28T15:49:41.440Z,2.03
2022-09-28T15:52:24.411Z,2.10
2022-09-28T15:54:51.924Z,1.90
2022-09-28T15:57:34.284Z,2.00
2022-09-28T16:00:01.866Z,2.35
2022-09-28T16:02:29.864Z,2.05
2022-09-28T16:05:00.867Z,2.00
2022-09-28T16:07:41.629Z,2.10
2022-09-28T16:10:15.359Z,2.13
2022-09-28T16:13:20.182Z,2.05
2022-09-28T16:15:58.328Z,2.22
2022-09-28T16:18:27.240Z,2.42
2022-09-28T16:21:26.584Z,2.35
2022-09-28T16:23:55.962Z,2.20
2022-09-28T16:26:41.481Z,2.22
2022-09-28T16:29:32.534Z,2.30
2022-09-28T16:32:25.578Z,2.50
2022-09-28T16:35:25.573Z,2.40
2022-09-28T16:38:01.913Z,2.78
2022-09-28T16:40:29.709Z,2.80
2022-09-28T16:43:00.031Z,2.60
2022-09-28T16:45:28.599Z,2.83
2022-09-28T16:47:57.636Z,2.75
2022-09-28T16:50:26.178Z,2.88
2022-09-28T16:53:24.964Z,2.63
2022-09-28T16:55:52.107Z,2.70
2022-09-28T16:58:19.406Z,2.78
2022-09-28T17:00:46.886Z,2.65
2022-09-28T17:03:16.122Z,2.60
2022-09-28T17:05:43.723Z,2.63
2022-09-28T17:08:15.819Z,2.50
2022-09-28T17:11:14.507Z,2.88
2022-09-28T17:13:43.801Z,2.88
2022-09-28T17:16:17.975Z,2.83
2022-09-28T17:18:46.241Z,2.85
2022-09-28T17:21:19.050Z,3.08
2022-09-28T17:23:47.726Z,2.90
2022-09-28T17:26:31.740Z,2.92
2022-09-28T17:28:59.756Z,3.10
2022-09-28T17:31:27.086Z,2.90
2022-09-28T17:33:54.691Z,3.10
2022-09-28T17:36:22.592Z,2.60
2022-09-28T17:39:15.192Z,2.70
2022-09-28T17:41:43.580Z,2.70
2022-09-28T17:44:15.314Z,3.10
2022-09-28T17:46:48.843Z,3.00
2022-09-28T17:49:17.079Z,2.85
2022-09-28T17:51:47.142Z,2.92
2022-09-28T17:54:16.963Z,2.90
2022-09-28T17:56:44.288Z,2.60
2022-09-28T17:59:14.553Z,2.90
2022-09-28T18:01:42.440Z,2.70
2022-09-28T18:04:19.146Z,3.00
2022-09-28T18:06:51.486Z,2.90
2022-09-28T18:09:25.242Z,3.10
2022-09-28T18:12:00.407Z,2.90
2022-09-28T18:14:28.544Z,2.87
2022-09-28T18:16:56.020Z,2.80
2022-09-28T18:19:23.532Z,2.53
2022-09-28T18:21:50.890Z,2.50
2022-09-28T18:24:18.455Z,3.00
2022-09-28T18:26:45.691Z,2.53
2022-09-28T18:29:12.904Z,3.03
2022-09-28T18:31:40.677Z,2.40
2022-09-28T18:34:08.491Z,2.43
2022-09-28T18:36:36.152Z,3.03
2022-09-28T18:39:04.743Z,2.57
2022-09-28T18:41:33.660Z,2.80
2022-09-28T18:44:03.189Z,2.90
2022-09-28T18:46:37.363Z,2.70
2022-09-28T18:49:07.478Z,2.70
2022-09-28T18:51:37.762Z,2.93
2022-09-28T18:54:08.670Z,3.03
2022-09-28T18:56:40.015Z,3.03
2022-09-28T18:59:12.205Z,2.90
2022-09-28T19:01:42.008Z,3.07
2022-09-28T19:04:10.612Z,3.30
2022-09-28T19:06:42.989Z,2.80
2022-09-28T19:09:10.813Z,3.33
2022-09-28T19:11:38.412Z,3.10
2022-09-28T19:14:05.604Z,3.60
2022-09-28T19:16:34.283Z,3.07
2022-09-28T19:19:02.831Z,2.67
2022-09-28T19:21:30.626Z,3.07
2022-09-28T19:24:01.081Z,2.83
2022-09-28T19:26:31.283Z,2.90
2022-09-28T19:29:01.672Z,3.10
2022-09-28T19:31:31.781Z,3.33
2022-09-28T19:33:59.212Z,2.83
2022-09-28T19:36:29.639Z,2.90
2022-09-28T19:39:05.277Z,2.80
2022-09-28T19:41:55.402Z,2.73
2022-09-28T19:44:28.456Z,2.97
2022-09-28T19:47:00.314Z,3.13
2022-09-28T19:49:33.549Z,2.87
2022-09-28T19:52:18.729Z,3.00
2022-09-28T19:54:57.332Z,2.90
2022-09-28T19:57:32.373Z,2.97
2022-09-28T20:00:03.218Z,2.90
2022-09-28T20:02:31.276Z,3.10
2022-09-28T20:04:59.334Z,2.80
2022-09-28T20:07:27.119Z,2.50
2022-09-28T20:09:54.627Z,2.80
2022-09-28T20:12:24.138Z,3.10
2022-09-28T20:14:51.657Z,2.63
2022-09-28T20:17:22.374Z,3.00
2022-09-28T20:19:52.171Z,2.77
2022-09-28T20:22:20.295Z,3.03
2022-09-28T20:24:48.786Z,3.10
2022-09-28T20:27:17.616Z,3.00
2022-09-28T20:29:45.239Z,3.50
2022-09-28T20:32:13.544Z,3.20
2022-09-28T20:34:44.610Z,3.00
2022-09-28T20:37:13.857Z,2.90
2022-09-28T20:39:44.806Z,2.97
2022-09-28T20:42:12.324Z,2.80
2022-09-28T20:44:39.647Z,2.70
2022-09-28T20:47:06.874Z,3.37
2022-09-28T20:49:34.184Z,3.17
2022-09-28T20:52:01.501Z,3.17
2022-09-28T20:54:29.119Z,2.97
2022-09-28T20:56:56.314Z,2.80
2022-09-28T20:59:26.047Z,2.43
2022-09-28T21:01:53.376Z,3.17
2022-09-28T21:04:20.772Z,2.87
2022-09-28T21:06:48.056Z,2.60
2022-09-28T21:09:15.243Z,2.50
2022-09-28T21:11:42.591Z,2.50
2022-09-28T21:14:10.611Z,2.20
2022-09-28T21:16:39.050Z,2.10
2022-09-28T21:19:06.320Z,2.20
2022-09-28T21:21:33.880Z,2.03
2022-09-28T21:24:02.116Z,2.07
2022-09-28T21:26:31.378Z,2.57
2022-09-28T21:28:59.562Z,2.50
2022-09-28T21:31:30.094Z,2.57
2022-09-28T21:33:58.654Z,1.97
2022-09-28T21:36:26.355Z,2.20
2022-09-28T21:38:56.257Z,2.10
2022-09-28T21:41:24.282Z,2.23
2022-09-28T21:43:52.077Z,2.20
2022-09-28T21:46:19.313Z,2.33
2022-09-28T21:48:46.562Z,2.90
2022-09-28T21:51:15.019Z,2.90
2022-09-28T21:53:43.016Z,3.97
2022-09-28T21:56:12.758Z,3.70
2022-09-28T21:58:40.271Z,3.90
2022-09-28T22:01:13.623Z,3.30
2022-09-28T22:03:42.143Z,3.70
2022-09-28T22:06:09.748Z,3.17
2022-09-28T22:08:37.519Z,3.43
2022-09-28T22:11:10.552Z,2.80
2022-09-28T22:13:42.781Z,3.40
2022-09-28T22:16:11.354Z,3.10
2022-09-28T22:18:38.556Z,3.00
2022-09-28T22:21:12.658Z,2.70
2022-09-28T22:23:40.252Z,2.43
2022-09-28T22:26:20.798Z,2.50
2022-09-28T22:28:53.598Z,2.70
2022-09-28T22:31:26.165Z,2.90
2022-09-28T22:33:54.300Z,2.90
2022-09-28T22:36:21.607Z,2.60
2022-09-28T22:38:49.389Z,2.90
2022-09-28T22:41:19.629Z,3.03
2022-09-28T22:43:47.794Z,3.23
2022-09-28T22:46:17.249Z,3.30
2022-09-28T22:48:49.142Z,3.30
2022-09-28T22:51:17.001Z,3.50
2022-09-28T22:53:44.555Z,4.43
2022-09-28T22:56:17.482Z,3.10
2022-09-28T22:58:47.272Z,3.27
2022-09-28T23:01:24.486Z,3.40
2022-09-28T23:03:53.488Z,3.60
2022-09-28T23:06:23.939Z,3.80
2022-09-28T23:08:52.323Z,3.60
2022-09-28T23:11:19.982Z,3.33
2022-09-28T23:13:54.893Z,3.70
2022-09-28T23:16:24.941Z,3.73
2022-09-28T23:18:53.274Z,3.53
2022-09-28T23:21:23.122Z,3.33
2022-09-28T23:23:58.743Z,3.40
2022-09-28T23:26:29.266Z,3.60
2022-09-28T23:28:56.636Z,3.47
2022-09-28T23:31:29.048Z,3.53
2022-09-28T23:34:04.688Z,3.13
2022-09-28T23:36:32.557Z,3.43
2022-09-28T23:38:59.938Z,3.27
2022-09-28T23:41:27.428Z,3.03
2022-09-28T23:43:54.618Z,3.17
2022-09-28T23:46:21.805Z,3.13
2022-09-28T23:48:50.046Z,3.00
2022-09-28T23:51:17.338Z,3.03
2022-09-28T23:53:44.682Z,3.20
2022-09-28T23:56:12.176Z,3.13
2022-09-28T23:58:39.205Z,3.20
